createdAt,value
2018-11-21T00:00:33.234Z,976.7
2018-11-21T00:01:34.366Z,976.7
2018-11-21T00:02:35.509Z,976.7
2018-11-21T00:03:36.877Z,976.7
2018-11-21T00:04:38.143Z,976.4
2018-11-21T00:05:39.390Z,976.7
2018-11-21T00:06:40.611Z,976.6
2018-11-21T00:07:42.079Z,976.7
2018-11-21T00:08:44.397Z,976.7
2018-11-21T00:09:45.565Z,976.7
2018-11-21T00:10:49.111Z,976.7
2018-11-21T00:11:50.248Z,976.7
2018-11-21T00:12:51.414Z,976.8
2018-11-21T00:13:52.580Z,976.8
2018-11-21T00:14:54.156Z,976.8
2018-11-21T00:15:55.346Z,976.9
2018-11-21T00:16:56.494Z,976.8
2018-11-21T00:17:58.981Z,976.9
2018-11-21T00:19:00.703Z,976.9
2018-11-21T00:20:01.307Z,976.9
2018-11-21T00:21:03.667Z,976.8
2018-11-21T00:22:04.918Z,977
2018-11-21T00:23:06.107Z,977.1
2018-11-21T00:24:07.731Z,977
2018-11-21T00:25:08.890Z,977.1
2018-11-21T00:26:10.061Z,977
2018-11-21T00:27:16.402Z,977
2018-11-21T00:28:17.590Z,977
2018-11-21T00:29:18.726Z,976.9
2018-11-21T00:30:19.876Z,976.9
2018-11-21T00:31:21.054Z,977
2018-11-21T00:32:22.302Z,977
2018-11-21T00:33:23.472Z,976.9
2018-11-21T00:34:24.610Z,976.9
2018-11-21T00:35:25.753Z,977
2018-11-21T00:36:27.150Z,976.9
2018-11-21T00:37:28.287Z,977
2018-11-21T00:38:29.454Z,976.5
2018-11-21T00:39:30.593Z,976.9
2018-11-21T00:40:31.723Z,977
2018-11-21T00:41:32.922Z,976.9
2018-11-21T00:42:34.145Z,976.9
2018-11-21T00:43:35.303Z,976.9
2018-11-21T00:44:36.415Z,976.9
2018-11-21T00:45:37.550Z,977
2018-11-21T00:46:38.751Z,977
2018-11-21T00:47:42.591Z,976.9
2018-11-21T00:48:44.134Z,977
2018-11-21T00:49:45.273Z,976.9
2018-11-21T00:50:46.419Z,977
2018-11-21T00:51:47.610Z,976.9
2018-11-21T00:52:48.994Z,977
2018-11-21T00:53:50.161Z,977
2018-11-21T00:54:51.409Z,977
2018-11-21T00:55:53.578Z,977
2018-11-21T00:56:54.775Z,976.8
2018-11-21T00:57:58.626Z,976.7
2018-11-21T00:59:02.297Z,976.9
2018-11-21T01:00:03.781Z,976.9
2018-11-21T01:01:04.957Z,976.9
2018-11-21T01:02:06.321Z,976.9
2018-11-21T01:03:08.139Z,977
2018-11-21T01:04:09.305Z,976.9
2018-11-21T01:05:14.461Z,976.9
2018-11-21T01:06:25.143Z,976.7
2018-11-21T01:07:26.334Z,977
2018-11-21T01:08:27.494Z,977
2018-11-21T01:09:29.865Z,977
2018-11-21T01:10:31.263Z,977
2018-11-21T01:11:32.421Z,977
2018-11-21T01:12:38.942Z,976.9
2018-11-21T01:13:40.084Z,977
2018-11-21T01:14:41.236Z,977
2018-11-21T01:15:42.377Z,977
2018-11-21T01:16:43.519Z,977
2018-11-21T01:17:44.698Z,977
2018-11-21T01:18:45.858Z,977.1
2018-11-21T01:19:47.136Z,976.6
2018-11-21T01:20:48.294Z,977
2018-11-21T01:21:49.452Z,977
2018-11-21T01:22:50.620Z,977
2018-11-21T01:23:51.788Z,977
2018-11-21T01:24:52.925Z,977.1
2018-11-21T01:25:54.072Z,977.2
2018-11-21T01:26:55.224Z,977.2
2018-11-21T01:27:56.403Z,977.1
2018-11-21T01:28:57.543Z,977.1
2018-11-21T01:29:58.689Z,977.1
2018-11-21T01:31:05.574Z,977.1
2018-11-21T01:32:09.193Z,977.1
2018-11-21T01:33:10.362Z,977.1
2018-11-21T01:34:11.555Z,977.1
2018-11-21T01:35:12.702Z,977.3
2018-11-21T01:36:13.923Z,977.2
2018-11-21T01:37:21.193Z,977.1
2018-11-21T01:38:22.399Z,977.1
2018-11-21T01:39:23.522Z,977.2
2018-11-21T01:40:24.697Z,977.1
2018-11-21T01:41:25.844Z,977.1
2018-11-21T01:42:35.277Z,977.1
2018-11-21T01:43:36.495Z,977.1
2018-11-21T01:44:40.110Z,977.1
2018-11-21T01:45:41.309Z,977.1
2018-11-21T01:46:42.516Z,977.1
2018-11-21T01:47:43.669Z,977.1
2018-11-21T01:48:44.841Z,977.1
2018-11-21T01:49:45.996Z,977.1
2018-11-21T01:50:47.156Z,976.7
2018-11-21T01:51:48.311Z,977
2018-11-21T01:52:49.437Z,977
2018-11-21T01:53:53.279Z,977.1
2018-11-21T01:54:54.437Z,977
2018-11-21T01:56:05.642Z,976.7
2018-11-21T01:57:06.814Z,977.1
2018-11-21T01:58:07.985Z,977.1
2018-11-21T01:59:09.180Z,977
2018-11-21T02:00:12.738Z,977
2018-11-21T02:01:13.909Z,977
2018-11-21T02:02:18.685Z,977
2018-11-21T02:03:22.293Z,977
2018-11-21T02:04:23.460Z,977.1
2018-11-21T02:05:24.593Z,977.1
2018-11-21T02:06:25.725Z,977.1
2018-11-21T02:07:26.861Z,977.1
2018-11-21T02:08:28.006Z,977.1
2018-11-21T02:09:29.176Z,977
2018-11-21T02:10:30.309Z,977
2018-11-21T02:11:31.441Z,977
2018-11-21T02:12:32.610Z,977
2018-11-21T02:13:33.767Z,976.5
2018-11-21T02:14:34.957Z,977.1
2018-11-21T02:15:36.087Z,977
2018-11-21T02:16:37.211Z,977
2018-11-21T02:17:41.873Z,977
2018-11-21T02:18:43.006Z,977
2018-11-21T02:19:46.794Z,976.9
2018-11-21T02:20:47.936Z,976.8
2018-11-21T02:21:49.075Z,977
2018-11-21T02:22:50.202Z,976.8
2018-11-21T02:23:51.325Z,976.9
2018-11-21T02:24:52.500Z,976.8
2018-11-21T02:25:53.613Z,976.8
2018-11-21T02:26:54.739Z,977
2018-11-21T02:27:56.101Z,976.9
2018-11-21T02:28:57.270Z,976.8
2018-11-21T02:29:58.507Z,976.9
2018-11-21T02:31:00.291Z,976.9
2018-11-21T02:32:08.127Z,976.8
2018-11-21T02:33:09.286Z,976.9
2018-11-21T02:34:10.449Z,977
2018-11-21T02:35:11.630Z,976.9
2018-11-21T02:36:12.762Z,977
2018-11-21T02:37:18.160Z,976.9
2018-11-21T02:38:19.303Z,977.1
2018-11-21T02:39:20.470Z,977.1
2018-11-21T02:40:21.868Z,977.2
2018-11-21T02:41:23.149Z,977.2
2018-11-21T02:42:24.553Z,977.3
2018-11-21T02:43:25.974Z,977.4
2018-11-21T02:44:27.176Z,977.4
2018-11-21T02:45:28.404Z,977.3
2018-11-21T02:46:29.561Z,977.2
2018-11-21T02:47:31.307Z,977.3
2018-11-21T02:48:32.616Z,977.3
2018-11-21T02:49:33.938Z,977.4
2018-11-21T02:50:35.209Z,977.2
2018-11-21T02:51:36.321Z,977.4
2018-11-21T02:52:37.569Z,977.5
2018-11-21T02:53:38.693Z,977.4
2018-11-21T02:54:40.143Z,977.4
2018-11-21T02:55:41.369Z,977.4
2018-11-21T02:56:42.676Z,977.3
2018-11-21T02:57:44.154Z,977.3
2018-11-21T02:58:45.285Z,977.3
2018-11-21T02:59:46.976Z,977.3
2018-11-21T03:00:48.176Z,977.3
2018-11-21T03:01:53.645Z,977.2
2018-11-21T03:02:54.807Z,977.3
2018-11-21T03:03:58.686Z,977.3
2018-11-21T03:04:59.809Z,977.3
2018-11-21T03:06:01.000Z,977.3
2018-11-21T03:07:08.389Z,977.5
2018-11-21T03:08:09.861Z,977.4
2018-11-21T03:09:11.084Z,977.5
2018-11-21T03:10:12.242Z,977.6
2018-11-21T03:11:13.413Z,977.5
2018-11-21T03:12:14.608Z,977.4
2018-11-21T03:13:15.763Z,977.4
2018-11-21T03:14:16.896Z,977.5
2018-11-21T03:15:18.035Z,977.5
2018-11-21T03:16:19.215Z,977.6
2018-11-21T03:17:20.604Z,977.5
2018-11-21T03:18:21.839Z,977.6
2018-11-21T03:19:23.147Z,977.5
2018-11-21T03:20:24.293Z,977.7
2018-11-21T03:21:25.678Z,977.7
2018-11-21T03:22:26.834Z,977.6
2018-11-21T03:23:28.293Z,977.8
2018-11-21T03:24:29.466Z,977.8
2018-11-21T03:25:30.639Z,977.9
2018-11-21T03:26:31.813Z,977.8
2018-11-21T03:27:39.992Z,977.8
2018-11-21T03:28:41.242Z,977.7
2018-11-21T03:29:42.487Z,977.7
2018-11-21T03:30:43.619Z,977.8
2018-11-21T03:31:47.862Z,977.8
2018-11-21T03:32:50.270Z,977.8
2018-11-21T03:33:57.643Z,977.7
2018-11-21T03:34:52.621Z,977.8
2018-11-21T03:35:54.513Z,977.8
2018-11-21T03:36:56.170Z,977.8
2018-11-21T03:37:57.321Z,977.9
2018-11-21T03:38:58.558Z,977.9
2018-11-21T03:39:59.713Z,977.8
2018-11-21T03:41:00.864Z,977.8
2018-11-21T03:42:02.062Z,977.9
2018-11-21T03:43:03.223Z,977.8
2018-11-21T03:44:04.960Z,977.9
2018-11-21T03:45:06.095Z,977.9
2018-11-21T03:46:07.562Z,978
2018-11-21T03:47:08.757Z,978
2018-11-21T03:48:09.907Z,978
2018-11-21T03:49:11.036Z,978
2018-11-21T03:50:12.170Z,978.1
2018-11-21T03:51:13.296Z,977.9
2018-11-21T03:52:14.519Z,978
2018-11-21T03:53:15.667Z,978
2018-11-21T03:54:24.319Z,978.1
2018-11-21T03:55:25.466Z,978.1
2018-11-21T03:56:26.612Z,978
2018-11-21T03:57:27.789Z,978.1
2018-11-21T03:58:47.698Z,978
2018-11-21T03:59:48.882Z,978.2
2018-11-21T04:00:50.160Z,978.1
2018-11-21T04:01:51.306Z,978.1
2018-11-21T04:02:52.477Z,978.1
2018-11-21T04:03:53.608Z,978.2
2018-11-21T04:04:54.748Z,978.2
2018-11-21T04:05:55.922Z,978.2
2018-11-21T04:06:57.053Z,978.1
2018-11-21T04:08:01.881Z,978.1
2018-11-21T04:09:03.034Z,978.1
2018-11-21T04:10:04.171Z,978.1
2018-11-21T04:11:05.300Z,978.3
2018-11-21T04:12:07.447Z,978.3
2018-11-21T04:13:08.619Z,978.4
2018-11-21T04:14:09.754Z,978.3
2018-11-21T04:15:10.898Z,978.2
2018-11-21T04:16:12.053Z,978.2
2018-11-21T04:17:13.218Z,978.2
2018-11-21T04:18:14.393Z,978.2
2018-11-21T04:19:15.532Z,978.3
2018-11-21T04:20:16.712Z,978.2
2018-11-21T04:21:17.858Z,978.3
2018-11-21T04:22:21.329Z,978.2
2018-11-21T04:23:22.578Z,978.2
2018-11-21T04:24:23.760Z,978.2
2018-11-21T04:25:24.893Z,978.1
2018-11-21T04:26:26.022Z,978
2018-11-21T04:27:28.537Z,978.2
2018-11-21T04:28:29.702Z,978.1
2018-11-21T04:29:31.244Z,978.1
2018-11-21T04:30:32.398Z,978.1
2018-11-21T04:31:33.571Z,978.2
2018-11-21T04:32:34.711Z,978.3
2018-11-21T04:33:35.902Z,978.3
2018-11-21T04:34:37.028Z,978.2
2018-11-21T04:35:38.181Z,978.2
2018-11-21T04:36:41.852Z,978.3
2018-11-21T04:37:42.986Z,978.2
2018-11-21T04:38:44.167Z,978.2
2018-11-21T04:39:45.302Z,978.2
2018-11-21T04:40:46.530Z,978.2
2018-11-21T04:41:47.666Z,978.3
2018-11-21T04:42:48.829Z,978.2
2018-11-21T04:43:50.053Z,978.3
2018-11-21T04:44:51.192Z,977.9
2018-11-21T04:45:52.336Z,978.2
2018-11-21T04:46:56.201Z,978.1
2018-11-21T04:47:57.381Z,978.1
2018-11-21T04:48:58.567Z,978.1
2018-11-21T04:49:59.702Z,978.1
2018-11-21T04:51:00.847Z,978
2018-11-21T04:52:02.691Z,978
2018-11-21T04:53:03.835Z,978
2018-11-21T04:54:05.055Z,978
2018-11-21T04:55:06.203Z,977.9
2018-11-21T04:56:07.367Z,978.1
2018-11-21T04:57:08.526Z,978.1
2018-11-21T04:58:09.682Z,978.1
2018-11-21T04:59:10.855Z,978.2
2018-11-21T05:00:11.999Z,978.2
2018-11-21T05:01:13.125Z,978.2
2018-11-21T05:02:14.277Z,978.2
2018-11-21T05:03:15.469Z,978.3
2018-11-21T05:04:16.669Z,978.3
2018-11-21T05:05:18.513Z,978.4
2018-11-21T05:06:19.750Z,978.4
2018-11-21T05:07:23.878Z,978.4
2018-11-21T05:08:25.010Z,978.4
2018-11-21T05:09:27.578Z,978.4
2018-11-21T05:10:28.743Z,978.4
2018-11-21T05:11:29.879Z,978.4
2018-11-21T05:12:31.025Z,978.4
2018-11-21T05:13:32.193Z,978.4
2018-11-21T05:14:33.406Z,978.4
2018-11-21T05:15:34.554Z,978.4
2018-11-21T05:16:35.701Z,978.4
2018-11-21T05:17:36.856Z,978.4
2018-11-21T05:18:37.982Z,978.3
2018-11-21T05:19:39.208Z,978.3
2018-11-21T05:20:40.415Z,978.4
2018-11-21T05:21:41.770Z,978.4
2018-11-21T05:22:44.629Z,978.4
2018-11-21T05:23:45.773Z,978.4
2018-11-21T05:24:47.214Z,978.4
2018-11-21T05:25:48.381Z,978.3
2018-11-21T05:26:49.581Z,978.4
2018-11-21T05:27:50.749Z,978.4
2018-11-21T05:28:51.937Z,978.4
2018-11-21T05:29:53.234Z,978.4
2018-11-21T05:30:54.366Z,978.4
2018-11-21T05:31:55.514Z,978.4
2018-11-21T05:32:56.737Z,978.4
2018-11-21T05:33:57.980Z,978.4
2018-11-21T05:34:59.249Z,978.5
2018-11-21T05:36:00.726Z,978.4
2018-11-21T05:37:08.677Z,978.4
2018-11-21T05:38:09.880Z,978.4
2018-11-21T05:39:11.018Z,978.4
2018-11-21T05:40:12.193Z,978.5
2018-11-21T05:41:13.321Z,978.5
2018-11-21T05:42:14.480Z,978.5
2018-11-21T05:43:18.897Z,978.5
2018-11-21T05:44:31.215Z,978.6
2018-11-21T05:45:28.721Z,978.5
2018-11-21T05:46:29.911Z,978.3
2018-11-21T05:47:31.066Z,978.5
2018-11-21T05:48:32.232Z,978.6
2018-11-21T05:49:36.589Z,978.5
2018-11-21T05:50:37.758Z,978.5
2018-11-21T05:51:39.007Z,978.6
2018-11-21T05:52:40.127Z,978.6
2018-11-21T05:53:41.305Z,978.6
2018-11-21T05:54:42.457Z,978.6
2018-11-21T05:55:43.653Z,978.6
2018-11-21T05:56:45.220Z,978.7
2018-11-21T05:57:46.481Z,978.7
2018-11-21T05:58:47.652Z,978.7
2018-11-21T05:59:48.814Z,978.7
2018-11-21T06:00:50.169Z,978.6
2018-11-21T06:01:51.331Z,978.7
2018-11-21T06:02:52.488Z,978.7
2018-11-21T06:03:53.728Z,978.6
2018-11-21T06:04:56.118Z,978.6
2018-11-21T06:05:57.333Z,978.5
2018-11-21T06:06:58.469Z,978.5
2018-11-21T06:08:06.100Z,978.6
2018-11-21T06:09:07.267Z,978.4
2018-11-21T06:10:08.593Z,978.5
2018-11-21T06:11:09.783Z,978.3
2018-11-21T06:12:11.009Z,978.6
2018-11-21T06:13:12.136Z,978.6
2018-11-21T06:14:13.342Z,978.6
2018-11-21T06:15:14.472Z,978.7
2018-11-21T06:16:15.842Z,978.6
2018-11-21T06:17:17.026Z,978.6
2018-11-21T06:18:18.178Z,978.7
2018-11-21T06:19:19.362Z,978.7
2018-11-21T06:20:20.514Z,978.6
2018-11-21T06:21:24.083Z,978.4
2018-11-21T06:22:27.366Z,978.8
2018-11-21T06:23:28.544Z,978.8
2018-11-21T06:24:31.909Z,978.8
2018-11-21T06:25:33.135Z,978.9
2018-11-21T06:26:34.388Z,978.9
2018-11-21T06:27:35.523Z,978.9
2018-11-21T06:28:36.716Z,979
2018-11-21T06:29:37.925Z,979
2018-11-21T06:30:39.120Z,978.9
2018-11-21T06:31:40.566Z,978.8
2018-11-21T06:32:41.768Z,979
2018-11-21T06:33:42.934Z,979.1
2018-11-21T06:34:44.105Z,979.1
2018-11-21T06:35:45.298Z,979
2018-11-21T06:36:46.634Z,979
2018-11-21T06:37:47.809Z,979
2018-11-21T06:38:51.684Z,979
2018-11-21T06:39:52.892Z,979.1
2018-11-21T06:40:54.223Z,979
2018-11-21T06:41:55.530Z,978.8
2018-11-21T06:42:56.688Z,979
2018-11-21T06:43:58.333Z,978.9
2018-11-21T06:44:59.480Z,979
2018-11-21T06:46:01.812Z,979
2018-11-21T06:47:03.215Z,979
2018-11-21T06:48:04.388Z,979.1
2018-11-21T06:49:05.573Z,979.1
2018-11-21T06:50:06.763Z,979.1
2018-11-21T06:51:07.910Z,979.1
2018-11-21T06:52:09.094Z,979.1
2018-11-21T06:53:10.281Z,979.1
2018-11-21T06:54:11.489Z,979.1
2018-11-21T06:55:12.625Z,979.1
2018-11-21T06:56:13.838Z,979.1
2018-11-21T06:57:15.035Z,979.2
2018-11-21T06:58:16.224Z,979.2
2018-11-21T06:59:18.736Z,979.2
2018-11-21T07:00:19.912Z,979.2
2018-11-21T07:01:21.079Z,979.2
2018-11-21T07:02:22.305Z,979.2
2018-11-21T07:03:23.477Z,979.1
2018-11-21T07:04:24.712Z,979.2
2018-11-21T07:05:25.876Z,979.2
2018-11-21T07:06:27.043Z,979.2
2018-11-21T07:07:28.269Z,979.2
2018-11-21T07:08:29.457Z,979.3
2018-11-21T07:09:30.821Z,979.3
2018-11-21T07:10:32.016Z,979.3
2018-11-21T07:11:33.183Z,979.4
2018-11-21T07:12:34.883Z,979.3
2018-11-21T07:13:36.076Z,979.3
2018-11-21T07:14:37.257Z,979.4
2018-11-21T07:15:41.669Z,979.3
2018-11-21T07:16:42.814Z,979.3
2018-11-21T07:17:50.099Z,979.3
2018-11-21T07:18:51.301Z,979.4
2018-11-21T07:19:52.509Z,979.4
2018-11-21T07:20:53.665Z,979.5
2018-11-21T07:21:55.100Z,979.5
2018-11-21T07:22:56.386Z,979.5
2018-11-21T07:23:57.734Z,979.5
2018-11-21T07:25:01.073Z,979.5
2018-11-21T07:26:02.801Z,979.5
2018-11-21T07:27:03.978Z,979.4
2018-11-21T07:28:12.896Z,979.5
2018-11-21T07:29:09.205Z,979.5
2018-11-21T07:30:10.619Z,979.4
2018-11-21T07:31:11.902Z,979.5
2018-11-21T07:32:15.250Z,979.5
2018-11-21T07:33:16.454Z,979.6
2018-11-21T07:34:17.808Z,979.5
2018-11-21T07:35:19.027Z,979.1
2018-11-21T07:36:22.012Z,979.5
2018-11-21T07:37:23.328Z,979.6
2018-11-21T07:38:25.918Z,979.5
2018-11-21T07:39:27.105Z,979.6
2018-11-21T07:40:28.962Z,979.6
2018-11-21T07:41:30.291Z,979.7
2018-11-21T07:42:31.474Z,979.6
2018-11-21T07:43:32.662Z,979.7
2018-11-21T07:44:33.830Z,979.7
2018-11-21T07:45:35.696Z,979.7
2018-11-21T07:46:36.893Z,979.7
2018-11-21T07:47:40.959Z,979.7
2018-11-21T07:48:47.109Z,979.8
2018-11-21T07:49:48.309Z,979.8
2018-11-21T07:50:49.454Z,979.8
2018-11-21T07:51:50.902Z,979.9
2018-11-21T07:52:53.147Z,979.9
2018-11-21T07:53:54.321Z,979.9
2018-11-21T07:54:55.533Z,979.9
2018-11-21T07:55:56.685Z,979.9
2018-11-21T07:56:57.885Z,979.9
2018-11-21T07:57:59.092Z,979.9
2018-11-21T07:59:02.846Z,979.8
2018-11-21T08:00:04.726Z,979.9
2018-11-21T08:01:05.944Z,979.9
2018-11-21T08:02:09.703Z,980
2018-11-21T08:03:10.889Z,979.8
2018-11-21T08:04:15.130Z,980
2018-11-21T08:05:16.292Z,979.9
2018-11-21T08:06:17.480Z,979.8
2018-11-21T08:07:18.682Z,979.9
2018-11-21T08:08:22.321Z,979.8
2018-11-21T08:09:23.515Z,979.8
2018-11-21T08:10:26.903Z,979.9
2018-11-21T08:11:28.122Z,979.9
2018-11-21T08:12:29.525Z,979.9
2018-11-21T08:13:31.704Z,980
2018-11-21T08:14:42.219Z,979.9
2018-11-21T08:15:43.365Z,979.9
2018-11-21T08:16:45.664Z,980
2018-11-21T08:17:49.341Z,979.9
2018-11-21T08:18:50.564Z,980
2018-11-21T08:19:51.751Z,980
2018-11-21T08:20:52.964Z,979.7
2018-11-21T08:21:54.296Z,979.9
2018-11-21T08:22:55.661Z,979.9
2018-11-21T08:23:56.835Z,979.9
2018-11-21T08:25:03.301Z,980
2018-11-21T08:26:04.459Z,980
2018-11-21T08:27:05.626Z,979.9
2018-11-21T08:28:06.786Z,979.9
2018-11-21T08:29:07.972Z,979.8
2018-11-21T08:30:09.180Z,980
2018-11-21T08:31:12.246Z,980
2018-11-21T08:32:13.463Z,980
2018-11-21T08:33:14.674Z,980
2018-11-21T08:34:15.901Z,980
2018-11-21T08:35:20.554Z,980.1
2018-11-21T08:36:21.876Z,980.1
2018-11-21T08:37:25.728Z,980.1
2018-11-21T08:38:26.932Z,980.1
2018-11-21T08:39:28.078Z,980
2018-11-21T08:40:29.305Z,980.1
2018-11-21T08:41:30.484Z,980.1
2018-11-21T08:42:31.673Z,980.1
2018-11-21T08:43:35.226Z,980.1
2018-11-21T08:44:37.556Z,980.2
2018-11-21T08:45:38.761Z,980.2
2018-11-21T08:46:40.006Z,980.2
2018-11-21T08:47:41.176Z,980.2
2018-11-21T08:48:42.362Z,980.2
2018-11-21T08:49:43.519Z,980.3
2018-11-21T08:50:45.006Z,980
2018-11-21T08:51:46.276Z,980.3
2018-11-21T08:52:47.451Z,980.3
2018-11-21T08:53:48.776Z,980.3
2018-11-21T08:54:49.942Z,980.3
2018-11-21T08:55:53.598Z,980.3
2018-11-21T08:56:55.860Z,980.3
2018-11-21T08:58:00.733Z,980.3
2018-11-21T08:59:02.007Z,980.2
2018-11-21T09:00:05.987Z,980.3
2018-11-21T09:01:07.305Z,980.3
2018-11-21T09:02:08.496Z,980.3
2018-11-21T09:03:10.946Z,980.3
2018-11-21T09:04:12.285Z,980.3
2018-11-21T09:05:19.414Z,980.3
2018-11-21T09:06:21.085Z,980.4
2018-11-21T09:07:23.662Z,980.4
2018-11-21T09:08:24.810Z,980.5
2018-11-21T09:09:40.602Z,980.5
2018-11-21T09:10:41.832Z,980.3
2018-11-21T09:11:43.966Z,980.3
2018-11-21T09:12:45.116Z,980.5
2018-11-21T09:13:46.295Z,980.5
2018-11-21T09:14:47.801Z,980.5
2018-11-21T09:15:51.831Z,980.6
2018-11-21T09:16:53.045Z,980.7
2018-11-21T09:17:54.234Z,980.4
2018-11-21T09:18:55.446Z,980.6
2018-11-21T09:19:56.673Z,980.5
2018-11-21T09:20:57.957Z,980.5
2018-11-21T09:22:01.438Z,980.6
2018-11-21T09:23:02.979Z,980.5
2018-11-21T09:24:06.496Z,980.4
2018-11-21T09:25:07.693Z,980.6
2018-11-21T09:26:08.869Z,980.5
2018-11-21T09:27:16.056Z,980.5
2018-11-21T09:28:19.450Z,980.5
2018-11-21T09:29:20.687Z,980.3
2018-11-21T09:30:22.153Z,980.5
2018-11-21T09:31:23.613Z,980.5
2018-11-21T09:32:32.265Z,980.5
2018-11-21T09:33:33.708Z,980.5
2018-11-21T09:34:34.897Z,980.5
2018-11-21T09:35:37.281Z,980.5
2018-11-21T09:36:38.491Z,980.5
2018-11-21T09:37:45.281Z,980.5
2018-11-21T09:38:50.285Z,980.5
2018-11-21T09:39:51.449Z,980.5
2018-11-21T09:40:52.637Z,980.6
2018-11-21T09:41:53.800Z,980.5
2018-11-21T09:43:18.290Z,980.6
2018-11-21T09:44:19.516Z,980.7
2018-11-21T09:45:20.834Z,980.6
2018-11-21T09:46:25.381Z,980.4
2018-11-21T09:47:35.219Z,980.7
2018-11-21T09:48:36.413Z,980.7
2018-11-21T09:49:37.590Z,980.7
2018-11-21T09:50:38.745Z,980.6
2018-11-21T09:51:44.073Z,980.7
2018-11-21T09:52:50.175Z,980.7
2018-11-21T09:53:47.446Z,980.7
2018-11-21T09:54:48.607Z,980.6
2018-11-21T09:55:49.798Z,980.7
2018-11-21T09:56:50.992Z,980.7
2018-11-21T09:57:52.220Z,980.8
2018-11-21T09:58:53.411Z,980.8
2018-11-21T09:59:54.587Z,980.8
2018-11-21T10:00:58.829Z,980.8
2018-11-21T10:02:00.131Z,980.8
2018-11-21T10:03:07.293Z,980.4
2018-11-21T10:04:08.805Z,980.7
2018-11-21T10:05:10.017Z,980.7
2018-11-21T10:06:13.765Z,980.7
2018-11-21T10:07:14.984Z,980.7
2018-11-21T10:08:16.216Z,980.7
2018-11-21T10:09:20.059Z,980.8
2018-11-21T10:10:21.274Z,980.4
2018-11-21T10:11:22.457Z,980.7
2018-11-21T10:12:23.687Z,980.7
2018-11-21T10:13:24.916Z,980.7
2018-11-21T10:14:26.167Z,980.8
2018-11-21T10:15:28.433Z,980.8
2018-11-21T10:16:31.028Z,980.8
2018-11-21T10:17:32.217Z,980.8
2018-11-21T10:18:34.125Z,980.7
2018-11-21T10:19:35.556Z,980.8
2018-11-21T10:20:43.383Z,980.8
2018-11-21T10:21:47.393Z,980.7
2018-11-21T10:22:48.550Z,980.7
2018-11-21T10:23:50.268Z,980.7
2018-11-21T10:24:51.521Z,980.7
2018-11-21T10:25:54.910Z,980.8
2018-11-21T10:26:59.288Z,980.7
2018-11-21T10:28:01.736Z,980.7
2018-11-21T10:29:03.021Z,980.8
2018-11-21T10:30:04.272Z,980.7
2018-11-21T10:31:05.511Z,980.7
2018-11-21T10:32:06.679Z,980.6
2018-11-21T10:33:12.762Z,980.7
2018-11-21T10:34:16.783Z,980.7
2018-11-21T10:35:19.277Z,980.8
2018-11-21T10:36:20.530Z,980.7
2018-11-21T10:37:21.704Z,980.7
2018-11-21T10:38:23.096Z,980.7
2018-11-21T10:39:24.296Z,980.7
2018-11-21T10:40:25.529Z,980.7
2018-11-21T10:41:31.658Z,980.7
2018-11-21T10:42:32.810Z,980.8
2018-11-21T10:43:34.085Z,980.6
2018-11-21T10:44:36.031Z,980.7
2018-11-21T10:45:39.723Z,980.7
2018-11-21T10:46:43.188Z,980.8
2018-11-21T10:47:44.440Z,980.7
2018-11-21T10:48:45.627Z,980.8
2018-11-21T10:49:46.805Z,980.7
2018-11-21T10:50:48.308Z,980.8
2018-11-21T10:51:49.555Z,980.8
2018-11-21T10:52:50.726Z,980.8
2018-11-21T10:53:51.953Z,980.8
2018-11-21T10:54:55.573Z,980.8
2018-11-21T10:55:57.209Z,980.8
2018-11-21T10:57:01.474Z,980.8
2018-11-21T10:58:02.774Z,980.8
2018-11-21T10:59:04.151Z,980.8
2018-11-21T11:00:08.720Z,980.8
2018-11-21T11:01:10.170Z,980.8
2018-11-21T11:02:11.382Z,980.8
2018-11-21T11:03:12.562Z,980.8
2018-11-21T11:04:21.442Z,980.9
2018-11-21T11:05:22.681Z,980.9
2018-11-21T11:06:24.804Z,980.6
2018-11-21T11:07:31.802Z,980.8
2018-11-21T11:08:37.724Z,980.8
2018-11-21T11:09:38.923Z,980.9
2018-11-21T11:10:42.273Z,980.9
2018-11-21T11:11:43.723Z,980.9
2018-11-21T11:12:45.077Z,981
2018-11-21T11:13:48.669Z,980.9
2018-11-21T11:14:49.844Z,980.7
2018-11-21T11:15:51.215Z,980.9
2018-11-21T11:16:52.681Z,980.9
2018-11-21T11:17:53.932Z,980.7
2018-11-21T11:18:55.177Z,981
2018-11-21T11:19:56.362Z,981
2018-11-21T11:20:57.530Z,981
2018-11-21T11:22:05.029Z,980.8
2018-11-21T11:23:09.103Z,981
2018-11-21T11:24:10.302Z,980.8
2018-11-21T11:25:11.525Z,981
2018-11-21T11:26:12.780Z,981
2018-11-21T11:27:20.255Z,980.9
2018-11-21T11:28:22.920Z,981
2018-11-21T11:29:26.572Z,981
2018-11-21T11:30:27.762Z,981
2018-11-21T11:31:28.951Z,981
2018-11-21T11:32:36.654Z,981
2018-11-21T11:33:37.885Z,981
2018-11-21T11:34:42.239Z,981
2018-11-21T11:35:43.675Z,981
2018-11-21T11:36:45.445Z,980.8
2018-11-21T11:37:47.815Z,981
2018-11-21T11:38:56.365Z,981
2018-11-21T11:39:58.937Z,981.1
2018-11-21T11:41:02.554Z,981.1
2018-11-21T11:42:03.836Z,981
2018-11-21T11:43:09.075Z,981.1
2018-11-21T11:44:11.253Z,981.1
2018-11-21T11:45:14.470Z,981
2018-11-21T11:46:24.474Z,981.1
2018-11-21T11:47:25.685Z,981.1
2018-11-21T11:48:26.939Z,981.1
2018-11-21T11:49:30.295Z,981.1
2018-11-21T11:50:34.639Z,981.1
2018-11-21T11:51:35.824Z,981.1
2018-11-21T11:52:39.753Z,980.9
2018-11-21T11:53:43.402Z,981.1
2018-11-21T11:54:45.176Z,981
2018-11-21T11:55:46.550Z,981
2018-11-21T11:56:47.754Z,981
2018-11-21T11:57:50.684Z,981
2018-11-21T11:58:54.657Z,981
2018-11-21T11:59:58.284Z,981
2018-11-21T12:01:09.803Z,981
2018-11-21T12:02:13.201Z,981
2018-11-21T12:03:12.469Z,981
2018-11-21T12:04:13.960Z,981
2018-11-21T12:05:15.156Z,980.9
2018-11-21T12:06:19.369Z,981
2018-11-21T12:07:20.608Z,981
2018-11-21T12:08:23.763Z,981
2018-11-21T12:09:25.240Z,981
2018-11-21T12:10:29.311Z,980.8
2018-11-21T12:11:40.850Z,980.9
2018-11-21T12:12:42.051Z,981
2018-11-21T12:13:43.456Z,980.8
2018-11-21T12:14:47.323Z,981
2018-11-21T12:15:48.668Z,980.9
2018-11-21T12:16:59.993Z,980.9
2018-11-21T12:18:01.269Z,981.1
2018-11-21T12:19:02.725Z,981.2
2018-11-21T12:20:03.943Z,980.9
2018-11-21T12:21:05.202Z,981.1
2018-11-21T12:22:08.989Z,981.1
2018-11-21T12:23:12.591Z,981.1
2018-11-21T12:24:18.385Z,981.1
2018-11-21T12:25:19.601Z,981.1
2018-11-21T12:26:29.036Z,980.9
2018-11-21T12:27:32.715Z,981.1
2018-11-21T12:28:36.558Z,981.1
2018-11-21T12:29:37.748Z,981.1
2018-11-21T12:30:38.977Z,981.1
2018-11-21T12:31:40.177Z,981
2018-11-21T12:32:41.372Z,981
2018-11-21T12:33:43.981Z,980.9
2018-11-21T12:34:47.643Z,980.9
2018-11-21T12:35:48.860Z,981
2018-11-21T12:36:50.074Z,981
2018-11-21T12:37:51.635Z,981.1
2018-11-21T12:38:59.805Z,980.9
2018-11-21T12:40:03.703Z,981.1
2018-11-21T12:41:05.146Z,981
2018-11-21T12:42:06.723Z,981
2018-11-21T12:43:13.411Z,981
2018-11-21T12:44:12.803Z,981
2018-11-21T12:45:14.009Z,981
2018-11-21T12:46:17.913Z,981
2018-11-21T12:47:20.281Z,980.7
2018-11-21T12:48:22.550Z,981
2018-11-21T12:49:26.187Z,981
2018-11-21T12:50:30.313Z,981
2018-11-21T12:51:31.805Z,981
2018-11-21T12:52:34.649Z,981
2018-11-21T12:53:35.880Z,981.1
2018-11-21T12:54:39.287Z,981.1
2018-11-21T12:55:41.781Z,981.1
2018-11-21T12:56:45.478Z,981.1
2018-11-21T12:57:46.667Z,980.9
2018-11-21T12:58:47.903Z,981.1
2018-11-21T12:59:57.557Z,981
2018-11-21T13:00:58.768Z,981.1
2018-11-21T13:02:09.568Z,981.1
2018-11-21T13:03:10.761Z,981
2018-11-21T13:04:14.882Z,981.1
2018-11-21T13:05:16.044Z,981.1
2018-11-21T13:06:17.245Z,981.1
2018-11-21T13:07:22.763Z,981.1
2018-11-21T13:08:23.946Z,980.9
2018-11-21T13:09:25.268Z,981
2018-11-21T13:10:28.704Z,981.1
2018-11-21T13:11:30.698Z,981
2018-11-21T13:12:31.969Z,981.1
2018-11-21T13:13:33.207Z,981.1
2018-11-21T13:14:34.421Z,981.1
2018-11-21T13:15:40.779Z,981.1
2018-11-21T13:16:41.488Z,981.2
2018-11-21T13:17:45.104Z,981.1
2018-11-21T13:18:46.627Z,981.1
2018-11-21T13:19:50.261Z,981.1
2018-11-21T13:20:51.455Z,981.1
2018-11-21T13:21:52.680Z,981.1
2018-11-21T13:22:57.019Z,981.2
2018-11-21T13:23:58.182Z,981.2
2018-11-21T13:25:03.205Z,981.1
2018-11-21T13:26:07.054Z,981.1
2018-11-21T13:27:11.352Z,981.2
2018-11-21T13:28:12.624Z,981
2018-11-21T13:29:17.243Z,981.1
2018-11-21T13:30:15.083Z,981